createdAt,value
2023-03-29T00:02:03.995Z,1.88
2023-03-29T00:04:31.434Z,1.65
2023-03-29T00:07:04.037Z,1.92
2023-03-29T00:09:33.430Z,1.88
2023-03-29T00:12:01.468Z,2.10
2023-03-29T00:14:30.813Z,2.30
2023-03-29T00:16:59.012Z,2.10
2023-03-29T00:19:26.823Z,3.45
2023-03-29T00:21:54.223Z,2.20
2023-03-29T00:24:23.861Z,2.40
2023-03-29T00:26:51.151Z,2.20
2023-03-29T00:29:18.414Z,2.35
2023-03-29T00:31:52.421Z,2.40
2023-03-29T00:34:20.928Z,3.42
2023-03-29T00:36:52.969Z,2.40
2023-03-29T00:39:20.957Z,2.53
2023-03-29T00:41:49.317Z,2.60
2023-03-29T00:44:53.424Z,3.75
2023-03-29T00:47:26.027Z,2.55
2023-03-29T00:49:54.388Z,3.78
2023-03-29T00:52:22.741Z,2.92
2023-03-29T00:54:55.001Z,3.20
2023-03-29T00:57:26.513Z,2.90
2023-03-29T00:59:56.389Z,2.70
2023-03-29T01:02:27.682Z,2.63
2023-03-29T01:05:15.447Z,2.47
2023-03-29T01:07:53.770Z,2.80
2023-03-29T01:10:27.846Z,2.17
2023-03-29T01:13:00.402Z,2.45
2023-03-29T01:15:28.900Z,2.55
2023-03-29T01:17:58.424Z,2.50
2023-03-29T01:20:50.854Z,2.72
2023-03-29T01:23:37.986Z,3.00
2023-03-29T01:26:36.011Z,2.38
2023-03-29T01:29:16.696Z,3.10
2023-03-29T01:31:52.745Z,3.40
2023-03-29T01:34:32.713Z,3.35
2023-03-29T01:37:26.600Z,3.28
2023-03-29T01:39:54.633Z,3.95
2023-03-29T01:42:28.111Z,2.38
2023-03-29T01:45:04.331Z,3.20
2023-03-29T01:47:52.650Z,2.50
2023-03-29T01:50:22.698Z,2.80
2023-03-29T01:53:19.171Z,3.55
2023-03-29T01:55:52.424Z,2.58
2023-03-29T01:58:23.675Z,3.10
2023-03-29T02:00:54.244Z,2.25
2023-03-29T02:03:26.600Z,3.30
2023-03-29T02:05:56.041Z,2.50
2023-03-29T02:08:27.578Z,2.95
2023-03-29T02:10:55.093Z,2.88
2023-03-29T02:13:22.361Z,3.97
2023-03-29T02:15:49.662Z,2.92
2023-03-29T02:18:17.932Z,3.42
2023-03-29T02:20:48.699Z,2.70
2023-03-29T02:23:23.480Z,2.67
2023-03-29T02:25:53.678Z,3.25
2023-03-29T02:28:24.337Z,3.03
2023-03-29T02:30:59.902Z,2.85
2023-03-29T02:33:53.991Z,3.17
2023-03-29T02:36:29.984Z,3.05
2023-03-29T02:39:00.123Z,3.13
2023-03-29T02:41:27.681Z,3.17
2023-03-29T02:43:57.670Z,3.28
2023-03-29T02:46:25.471Z,3.25
2023-03-29T02:48:54.136Z,2.85
2023-03-29T02:51:26.421Z,3.97
2023-03-29T02:54:03.191Z,3.70
2023-03-29T02:56:31.646Z,3.58
2023-03-29T02:58:58.980Z,3.10
2023-03-29T03:01:26.493Z,4.45
2023-03-29T03:03:53.978Z,3.72
2023-03-29T03:06:22.203Z,3.90
2023-03-29T03:08:50.768Z,3.67
2023-03-29T03:11:18.082Z,3.28
2023-03-29T03:13:46.912Z,3.65
2023-03-29T03:16:14.527Z,3.83
2023-03-29T03:18:43.224Z,3.88
2023-03-29T03:21:11.657Z,3.33
2023-03-29T03:23:39.214Z,3.10
2023-03-29T03:26:08.812Z,3.63
2023-03-29T03:28:37.195Z,4.18
2023-03-29T03:31:09.880Z,3.50
2023-03-29T03:33:56.812Z,3.30
2023-03-29T03:36:37.556Z,3.40
2023-03-29T03:39:07.325Z,3.90
2023-03-29T03:41:35.848Z,3.55
2023-03-29T03:44:03.695Z,3.58
2023-03-29T03:46:32.049Z,3.83
2023-03-29T03:49:00.986Z,3.67
2023-03-29T03:51:34.898Z,3.83
2023-03-29T03:54:02.865Z,3.75
2023-03-29T03:56:36.243Z,3.78
2023-03-29T03:59:03.932Z,3.63
2023-03-29T04:01:43.581Z,4.13
2023-03-29T04:04:19.814Z,4.18
2023-03-29T04:07:04.358Z,3.30
2023-03-29T04:09:50.329Z,3.95
2023-03-29T04:12:33.064Z,4.15
2023-03-29T04:15:01.420Z,4.70
2023-03-29T04:17:30.190Z,3.78
2023-03-29T04:20:11.660Z,3.78
2023-03-29T04:22:41.359Z,3.80
2023-03-29T04:25:10.568Z,4.10
2023-03-29T04:27:44.433Z,3.85
2023-03-29T04:30:26.010Z,3.53
2023-03-29T04:33:19.417Z,4.15
2023-03-29T04:35:53.622Z,3.85
2023-03-29T04:38:23.614Z,4.82
2023-03-29T04:40:55.073Z,3.83
2023-03-29T04:43:41.841Z,3.47
2023-03-29T04:46:18.582Z,4.20
2023-03-29T04:49:05.949Z,3.90
2023-03-29T04:51:40.040Z,3.63
2023-03-29T04:54:07.826Z,4.10
2023-03-29T04:56:53.998Z,4.00
2023-03-29T04:59:41.945Z,4.03
2023-03-29T05:02:22.178Z,3.60
2023-03-29T05:04:51.366Z,4.15
2023-03-29T05:07:19.976Z,3.90
2023-03-29T05:09:48.285Z,4.28
2023-03-29T05:12:16.183Z,3.80
2023-03-29T05:14:51.450Z,4.10
2023-03-29T05:17:19.384Z,3.58
2023-03-29T05:19:48.051Z,4.03
2023-03-29T05:22:16.754Z,4.32
2023-03-29T05:24:44.675Z,3.40
2023-03-29T05:27:17.292Z,3.70
2023-03-29T05:29:53.386Z,4.07
2023-03-29T05:32:38.143Z,4.57
2023-03-29T05:35:07.638Z,4.38
2023-03-29T05:37:36.073Z,4.63
2023-03-29T05:40:07.294Z,4.30
2023-03-29T05:42:49.809Z,4.15
2023-03-29T05:45:17.512Z,3.33
2023-03-29T05:47:45.342Z,3.75
2023-03-29T05:50:13.825Z,3.78
2023-03-29T05:52:41.530Z,3.80
2023-03-29T05:55:09.283Z,4.07
2023-03-29T05:57:39.979Z,4.55
2023-03-29T06:00:24.260Z,4.20
2023-03-29T06:03:13.365Z,3.88
2023-03-29T06:05:49.650Z,3.35
2023-03-29T06:08:17.742Z,4.13
2023-03-29T06:11:09.195Z,3.58
2023-03-29T06:14:06.416Z,3.85
2023-03-29T06:16:36.710Z,3.95
2023-03-29T06:19:04.310Z,3.90
2023-03-29T06:21:33.071Z,3.60
2023-03-29T06:24:01.395Z,3.53
2023-03-29T06:26:34.010Z,3.80
2023-03-29T06:29:01.732Z,4.05
2023-03-29T06:31:30.182Z,3.92
2023-03-29T06:33:58.957Z,3.55
2023-03-29T06:36:39.047Z,3.83
2023-03-29T06:39:07.368Z,4.38
2023-03-29T06:41:57.194Z,4.22
2023-03-29T06:44:52.603Z,4.22
2023-03-29T06:47:20.943Z,4.20
2023-03-29T06:49:48.572Z,3.92
2023-03-29T06:52:32.924Z,3.95
2023-03-29T06:55:02.118Z,4.13
2023-03-29T06:57:30.895Z,5.93
2023-03-29T06:59:59.013Z,6.90
2023-03-29T07:02:46.656Z,8.45
2023-03-29T07:05:14.758Z,5.90
2023-03-29T07:08:12.122Z,5.70
2023-03-29T07:10:52.913Z,3.70
2023-03-29T07:13:38.865Z,4.47
2023-03-29T07:16:12.927Z,4.70
2023-03-29T07:18:49.528Z,3.78
2023-03-29T07:21:37.854Z,5.60
2023-03-29T07:24:07.086Z,6.63
2023-03-29T07:26:36.582Z,5.63
2023-03-29T07:29:04.127Z,6.28
2023-03-29T07:31:35.106Z,5.35
2023-03-29T07:34:25.687Z,4.05
2023-03-29T07:36:54.720Z,3.70
2023-03-29T07:39:22.808Z,4.37
2023-03-29T07:42:10.173Z,4.05
2023-03-29T07:44:37.797Z,4.25
2023-03-29T07:47:05.669Z,4.72
2023-03-29T07:49:33.466Z,5.07
2023-03-29T07:52:01.737Z,4.75
2023-03-29T07:54:32.580Z,4.72
2023-03-29T07:57:25.542Z,5.43
2023-03-29T07:59:55.394Z,5.85
2023-03-29T08:02:27.905Z,4.75
2023-03-29T08:04:59.550Z,5.45
2023-03-29T08:07:44.697Z,5.95
2023-03-29T08:10:19.484Z,7.25
2023-03-29T08:13:10.278Z,7.90
2023-03-29T08:16:07.750Z,10.05
2023-03-29T08:18:40.607Z,8.82
2023-03-29T08:21:08.497Z,4.93
2023-03-29T08:23:36.418Z,4.75
2023-03-29T08:26:16.123Z,3.88
2023-03-29T08:28:44.916Z,4.75
2023-03-29T08:31:13.666Z,4.03
2023-03-29T08:33:44.807Z,8.00
2023-03-29T08:36:34.002Z,6.75
2023-03-29T08:39:10.089Z,4.70
2023-03-29T08:42:16.369Z,3.08
2023-03-29T08:45:03.168Z,3.42
2023-03-29T08:47:31.158Z,3.22
2023-03-29T08:50:00.322Z,3.70
2023-03-29T08:52:51.708Z,2.88
2023-03-29T08:55:45.485Z,2.17
2023-03-29T08:58:39.202Z,2.90
2023-03-29T09:01:09.437Z,2.97
2023-03-29T09:04:05.998Z,3.13
2023-03-29T09:06:49.184Z,2.63
2023-03-29T09:09:24.409Z,2.92
2023-03-29T09:12:19.478Z,2.13
2023-03-29T09:14:50.180Z,2.50
2023-03-29T09:17:48.336Z,2.58
2023-03-29T09:20:22.316Z,3.13
2023-03-29T09:23:30.419Z,2.88
2023-03-29T09:26:19.710Z,2.53
2023-03-29T09:29:17.842Z,2.63
2023-03-29T09:31:46.231Z,2.60
2023-03-29T09:34:27.682Z,3.60
2023-03-29T09:37:31.216Z,2.70
2023-03-29T09:39:59.204Z,2.72
2023-03-29T09:42:42.407Z,2.35
2023-03-29T09:45:11.422Z,2.90
2023-03-29T09:47:45.378Z,2.70
2023-03-29T09:50:30.822Z,2.78
2023-03-29T09:53:02.257Z,2.53
2023-03-29T09:55:36.485Z,2.53
2023-03-29T09:58:18.230Z,2.85
2023-03-29T10:00:50.729Z,3.20
2023-03-29T10:03:20.398Z,2.67
2023-03-29T10:05:58.682Z,2.88
2023-03-29T10:08:30.014Z,2.38
2023-03-29T10:11:01.990Z,2.70
2023-03-29T10:13:35.139Z,2.65
2023-03-29T10:16:03.839Z,2.53
2023-03-29T10:18:34.359Z,3.25
2023-03-29T10:23:36.965Z,2.80
2023-03-29T10:26:16.822Z,2.75
2023-03-29T10:28:44.851Z,3.00
2023-03-29T10:31:18.472Z,2.70
2023-03-29T10:33:58.049Z,2.78
2023-03-29T10:36:27.512Z,2.83
2023-03-29T10:38:58.846Z,3.13
2023-03-29T10:41:30.759Z,2.90
2023-03-29T10:43:58.908Z,3.40
2023-03-29T10:46:26.505Z,3.38
2023-03-29T10:49:04.977Z,3.38
2023-03-29T10:51:33.470Z,3.08
2023-03-29T10:54:01.918Z,2.35
2023-03-29T10:56:40.471Z,3.35
2023-03-29T10:59:34.103Z,2.90
2023-03-29T11:02:01.851Z,2.80
2023-03-29T11:05:10.832Z,3.50
2023-03-29T11:07:50.403Z,2.28
2023-03-29T11:10:30.835Z,2.40
2023-03-29T11:15:49.654Z,2.45
2023-03-29T11:18:37.302Z,2.53
2023-03-29T11:21:30.203Z,2.45
2023-03-29T11:24:22.870Z,2.53
2023-03-29T11:26:56.458Z,2.38
2023-03-29T11:29:25.781Z,2.75
2023-03-29T11:31:56.912Z,2.88
2023-03-29T11:34:33.984Z,3.10
2023-03-29T11:37:26.769Z,2.90
2023-03-29T11:40:37.795Z,2.83
2023-03-29T11:43:11.556Z,3.05
2023-03-29T11:45:46.352Z,3.03
2023-03-29T11:48:21.436Z,3.75
2023-03-29T11:50:52.411Z,3.67
2023-03-29T11:53:36.410Z,3.38
2023-03-29T11:56:23.438Z,3.20
2023-03-29T11:58:55.644Z,3.22
2023-03-29T12:01:34.804Z,3.15
2023-03-29T12:04:26.161Z,2.92
2023-03-29T12:07:06.317Z,3.20
2023-03-29T12:09:50.434Z,3.10
2023-03-29T12:12:43.001Z,3.60
2023-03-29T12:15:20.545Z,3.70
2023-03-29T12:18:03.540Z,2.78
2023-03-29T12:20:36.332Z,3.38
2023-03-29T12:23:07.099Z,2.58
2023-03-29T12:28:44.417Z,3.03
2023-03-29T12:31:33.439Z,3.00
2023-03-29T12:34:07.019Z,2.80
2023-03-29T12:36:57.427Z,4.15
2023-03-29T12:39:44.024Z,3.08
2023-03-29T12:42:30.503Z,3.45
2023-03-29T12:45:04.175Z,2.65
2023-03-29T12:50:33.047Z,2.60
2023-03-29T12:53:04.773Z,2.95
2023-03-29T12:55:50.638Z,3.22
2023-03-29T12:59:06.768Z,2.38
2023-03-29T13:01:37.217Z,3.17
2023-03-29T13:04:18.901Z,2.80
2023-03-29T13:06:50.513Z,3.25
2023-03-29T13:09:36.056Z,3.50
2023-03-29T13:12:13.190Z,2.88
2023-03-29T13:14:46.500Z,3.10
2023-03-29T13:17:52.317Z,2.20
2023-03-29T13:20:32.082Z,2.55
2023-03-29T13:23:18.177Z,2.63
2023-03-29T13:26:04.245Z,2.50
2023-03-29T13:28:53.210Z,2.80
2023-03-29T13:31:28.676Z,2.10
2023-03-29T13:33:56.346Z,2.15
2023-03-29T13:36:31.833Z,2.30
2023-03-29T13:39:05.558Z,2.53
2023-03-29T13:41:39.264Z,2.78
2023-03-29T13:44:26.099Z,2.92
2023-03-29T13:47:23.859Z,1.92
2023-03-29T13:49:58.215Z,2.28
2023-03-29T13:52:25.853Z,2.40
2023-03-29T13:55:00.263Z,2.13
2023-03-29T13:58:12.394Z,2.75
2023-03-29T14:00:46.304Z,2.03
2023-03-29T14:03:16.308Z,2.38
2023-03-29T14:05:50.078Z,2.25
2023-03-29T14:08:29.881Z,2.72
2023-03-29T14:11:01.915Z,1.90
2023-03-29T14:13:29.922Z,2.10
2023-03-29T14:16:08.841Z,2.13
2023-03-29T14:18:41.994Z,2.17
2023-03-29T14:21:12.295Z,2.20
2023-03-29T14:26:10.725Z,1.48
2023-03-29T14:28:56.761Z,1.70
2023-03-29T14:31:26.909Z,2.15
2023-03-29T14:33:56.758Z,1.30
2023-03-29T14:36:26.023Z,1.88
2023-03-29T14:39:01.596Z,1.67
2023-03-29T14:41:34.593Z,2.22
2023-03-29T14:44:03.286Z,1.90
2023-03-29T14:46:31.710Z,1.90
2023-03-29T14:48:59.722Z,1.83
2023-03-29T14:51:30.396Z,1.50
2023-03-29T14:54:03.417Z,2.55
2023-03-29T14:56:32.914Z,1.90
2023-03-29T14:59:05.042Z,1.93
2023-03-29T15:01:33.221Z,1.98
2023-03-29T15:04:07.508Z,1.48
2023-03-29T15:06:39.566Z,1.98
2023-03-29T15:09:07.265Z,1.42
2023-03-29T15:11:36.287Z,1.70
2023-03-29T15:14:16.410Z,2.38
2023-03-29T15:16:47.008Z,1.70
2023-03-29T15:19:18.565Z,1.50
2023-03-29T15:21:49.301Z,1.58
2023-03-29T15:24:22.821Z,1.40
2023-03-29T15:27:03.109Z,2.20
2023-03-29T15:29:42.428Z,1.40
2023-03-29T15:32:19.486Z,2.33
2023-03-29T15:34:47.582Z,1.92
2023-03-29T15:37:15.117Z,1.40
2023-03-29T15:39:44.310Z,1.88
2023-03-29T15:42:11.971Z,2.13
2023-03-29T15:44:39.674Z,1.65
2023-03-29T15:47:11.029Z,1.73
2023-03-29T15:49:38.450Z,1.65
2023-03-29T15:52:06.298Z,2.25
2023-03-29T15:54:35.006Z,2.75
2023-03-29T15:57:08.717Z,1.67
2023-03-29T15:59:36.694Z,2.13
2023-03-29T16:02:04.804Z,2.13
2023-03-29T16:04:32.338Z,2.25
2023-03-29T16:07:00.542Z,2.22
2023-03-29T16:09:28.231Z,2.10
2023-03-29T16:11:55.754Z,2.03
2023-03-29T16:14:27.373Z,2.03
2023-03-29T16:16:55.793Z,1.65
2023-03-29T16:19:23.968Z,1.98
2023-03-29T16:21:52.727Z,1.77
2023-03-29T16:24:24.926Z,1.85
2023-03-29T16:26:55.390Z,1.98
2023-03-29T16:29:23.715Z,2.20
2023-03-29T16:31:51.522Z,2.72
2023-03-29T16:34:19.974Z,2.42
2023-03-29T16:36:47.919Z,1.70
2023-03-29T16:39:16.093Z,2.38
2023-03-29T16:41:45.232Z,2.28
2023-03-29T16:44:23.202Z,2.10
2023-03-29T16:46:53.868Z,2.53
2023-03-29T16:49:21.808Z,1.83
2023-03-29T16:51:49.552Z,2.30
2023-03-29T16:54:18.922Z,2.35
2023-03-29T16:56:47.177Z,2.38
2023-03-29T16:59:15.539Z,2.08
2023-03-29T17:01:43.325Z,2.55
2023-03-29T17:04:11.699Z,2.60
2023-03-29T17:06:39.162Z,2.50
2023-03-29T17:09:07.454Z,2.45
2023-03-29T17:11:35.003Z,3.45
2023-03-29T17:14:03.029Z,2.67
2023-03-29T17:16:30.414Z,2.42
2023-03-29T17:19:01.067Z,2.38
2023-03-29T17:21:30.882Z,2.13
2023-03-29T17:23:58.403Z,2.60
2023-03-29T17:26:26.240Z,2.88
2023-03-29T17:28:53.760Z,2.35
2023-03-29T17:31:21.438Z,3.30
2023-03-29T17:33:51.982Z,3.10
2023-03-29T17:36:24.128Z,2.80
2023-03-29T17:38:51.955Z,2.67
2023-03-29T17:41:19.429Z,2.80
2023-03-29T17:43:47.915Z,2.67
2023-03-29T17:46:16.961Z,2.65
2023-03-29T17:48:44.427Z,3.38
2023-03-29T17:51:11.808Z,2.33
2023-03-29T17:53:39.321Z,2.53
2023-03-29T17:56:07.121Z,2.15
2023-03-29T17:58:34.613Z,2.90
2023-03-29T18:01:09.116Z,2.35
2023-03-29T18:03:36.775Z,2.50
2023-03-29T18:06:04.663Z,3.03
2023-03-29T18:08:32.912Z,3.10
2023-03-29T18:11:11.836Z,3.20
2023-03-29T18:13:40.091Z,2.88
2023-03-29T18:16:09.151Z,3.13
2023-03-29T18:18:37.124Z,2.88
2023-03-29T18:21:06.963Z,2.53
2023-03-29T18:23:34.566Z,3.13
2023-03-29T18:26:05.837Z,2.80
2023-03-29T18:28:33.524Z,2.90
2023-03-29T18:31:01.093Z,2.92
2023-03-29T18:33:30.302Z,2.78
2023-03-29T18:35:57.750Z,3.33
2023-03-29T18:38:25.779Z,2.60
2023-03-29T18:40:53.281Z,3.30
2023-03-29T18:43:20.743Z,3.50
2023-03-29T18:45:48.481Z,2.92
2023-03-29T18:48:16.044Z,2.15
2023-03-29T18:50:47.040Z,2.28
2023-03-29T18:53:15.018Z,2.70
2023-03-29T18:55:43.244Z,2.63
2023-03-29T18:58:11.394Z,2.80
2023-03-29T19:00:38.993Z,2.78
2023-03-29T19:03:06.525Z,2.53
2023-03-29T19:05:34.149Z,2.85
2023-03-29T19:08:02.887Z,2.38
2023-03-29T19:10:30.450Z,2.13
2023-03-29T19:12:57.914Z,2.42
2023-03-29T19:15:25.546Z,3.28
2023-03-29T19:17:53.121Z,2.15
2023-03-29T19:20:21.367Z,2.55
2023-03-29T19:22:48.868Z,2.33
2023-03-29T19:25:16.512Z,2.45
2023-03-29T19:27:43.929Z,2.92
2023-03-29T19:30:11.609Z,3.10
2023-03-29T19:32:39.183Z,2.60
2023-03-29T19:35:07.769Z,2.80
2023-03-29T19:37:35.132Z,2.78
2023-03-29T19:40:02.857Z,2.42
2023-03-29T19:42:30.502Z,2.80
2023-03-29T19:44:57.878Z,3.25
2023-03-29T19:47:25.352Z,3.10
2023-03-29T19:49:52.811Z,2.80
2023-03-29T19:52:24.017Z,2.97
2023-03-29T19:54:51.569Z,2.85
2023-03-29T19:57:19.097Z,2.30
2023-03-29T19:59:46.609Z,2.80
2023-03-29T20:02:14.161Z,3.00
2023-03-29T20:04:41.811Z,2.92
2023-03-29T20:07:09.324Z,2.65
2023-03-29T20:09:36.820Z,2.72
2023-03-29T20:12:04.634Z,2.50
2023-03-29T20:14:32.386Z,2.60
2023-03-29T20:16:59.824Z,2.58
2023-03-29T20:19:27.289Z,3.10
2023-03-29T20:21:58.968Z,3.17
2023-03-29T20:24:26.565Z,3.00
2023-03-29T20:26:53.990Z,2.88
2023-03-29T20:29:21.530Z,2.72
2023-03-29T20:31:49.127Z,3.45
2023-03-29T20:34:18.351Z,2.85
2023-03-29T20:36:47.003Z,2.92
2023-03-29T20:39:17.853Z,3.55
2023-03-29T20:41:47.797Z,3.20
2023-03-29T20:44:17.083Z,3.45
2023-03-29T20:47:04.297Z,3.15
2023-03-29T20:49:39.310Z,3.38
2023-03-29T20:52:15.474Z,3.08
2023-03-29T20:54:43.954Z,3.05
2023-03-29T20:57:16.356Z,2.72
2023-03-29T20:59:44.838Z,3.45
2023-03-29T21:02:19.018Z,3.17
2023-03-29T21:04:51.975Z,3.13
2023-03-29T21:07:20.153Z,3.55
2023-03-29T21:09:50.038Z,3.53
2023-03-29T21:12:17.691Z,3.72
2023-03-29T21:14:45.096Z,3.42
2023-03-29T21:17:12.826Z,3.83
2023-03-29T21:19:40.357Z,3.08
2023-03-29T21:22:08.258Z,3.20
2023-03-29T21:24:36.678Z,3.28
2023-03-29T21:27:04.356Z,3.28
2023-03-29T21:29:31.786Z,3.70
2023-03-29T21:31:59.544Z,3.72
2023-03-29T21:34:27.118Z,3.10
2023-03-29T21:36:54.560Z,3.10
2023-03-29T21:39:22.486Z,3.05
2023-03-29T21:41:49.819Z,3.40
2023-03-29T21:44:17.310Z,3.47
2023-03-29T21:46:44.839Z,3.80
2023-03-29T21:49:12.527Z,3.25
2023-03-29T21:51:39.972Z,3.33
2023-03-29T21:54:07.403Z,3.05
2023-03-29T21:56:34.783Z,2.50
2023-03-29T21:59:02.192Z,3.10
2023-03-29T22:01:29.813Z,2.67
2023-03-29T22:03:57.329Z,3.33
2023-03-29T22:06:25.191Z,2.60
2023-03-29T22:08:53.185Z,3.13
2023-03-29T22:11:21.017Z,2.65
2023-03-29T22:13:48.434Z,3.25
2023-03-29T22:16:18.945Z,2.58
2023-03-29T22:18:49.660Z,3.25
2023-03-29T22:21:20.305Z,3.10
2023-03-29T22:23:49.777Z,2.85
2023-03-29T22:26:19.671Z,3.30
2023-03-29T22:28:47.109Z,3.30
2023-03-29T22:31:17.075Z,2.75
2023-03-29T22:33:44.666Z,3.45
2023-03-29T22:36:31.270Z,2.80
2023-03-29T22:38:58.901Z,2.70
2023-03-29T22:41:28.323Z,3.00
2023-03-29T22:43:57.867Z,2.97
2023-03-29T22:46:25.486Z,2.83
2023-03-29T22:48:53.231Z,2.63
2023-03-29T22:51:20.928Z,2.75
2023-03-29T22:53:48.520Z,2.38
2023-03-29T22:56:17.012Z,3.05
2023-03-29T22:58:44.823Z,2.55
2023-03-29T23:01:12.855Z,2.70
2023-03-29T23:03:40.436Z,2.53
2023-03-29T23:06:08.381Z,2.35
2023-03-29T23:08:36.387Z,2.65
2023-03-29T23:11:04.603Z,3.22
2023-03-29T23:13:33.614Z,2.72
2023-03-29T23:16:02.353Z,2.55
2023-03-29T23:18:31.438Z,2.97
2023-03-29T23:20:59.169Z,2.72
2023-03-29T23:23:27.394Z,2.58
2023-03-29T23:25:58.334Z,2.70
2023-03-29T23:28:27.679Z,2.70
2023-03-29T23:30:56.337Z,2.70
2023-03-29T23:33:25.603Z,3.03
2023-03-29T23:35:53.725Z,3.40
2023-03-29T23:38:21.349Z,2.50
2023-03-29T23:41:01.115Z,2.58
2023-03-29T23:43:33.144Z,2.67
2023-03-29T23:46:05.798Z,2.17
2023-03-29T23:48:34.398Z,2.58
2023-03-29T23:51:02.937Z,2.08
2023-03-29T23:53:31.640Z,2.20
2023-03-29T23:56:01.443Z,2.20
2023-03-29T23:58:29.175Z,2.25
